sensor_id;sensor_type;location;lat;lon;timestamp;P1;durP1;ratioP1;P2;durP2;ratioP2
44842;SDS011;31884;52.538;13.820;2022-10-16T00:00:15;34.72;;;21.60;;
44842;SDS011;31884;52.538;13.820;2022-10-16T00:02:41;36.35;;;22.73;;
44842;SDS011;31884;52.538;13.820;2022-10-16T00:05:06;48.03;;;27.58;;
44842;SDS011;31884;52.538;13.820;2022-10-16T00:07:32;46.58;;;26.83;;
44842;SDS011;31884;52.538;13.820;2022-10-16T00:09:57;38.38;;;22.45;;
44842;SDS011;31884;52.538;13.820;2022-10-16T00:12:22;40.92;;;22.90;;
44842;SDS011;31884;52.538;13.820;2022-10-16T00:14:48;43.78;;;23.92;;
44842;SDS011;31884;52.538;13.820;2022-10-16T00:17:13;36.20;;;20.70;;
44842;SDS011;31884;52.538;13.820;2022-10-16T00:19:39;38.55;;;21.10;;
44842;SDS011;31884;52.538;13.820;2022-10-16T00:22:04;33.40;;;18.98;;
44842;SDS011;31884;52.538;13.820;2022-10-16T00:24:30;40.33;;;21.05;;
44842;SDS011;31884;52.538;13.820;2022-10-16T00:26:55;55.40;;;28.35;;
44842;SDS011;31884;52.538;13.820;2022-10-16T00:29:21;41.50;;;21.02;;
44842;SDS011;31884;52.538;13.820;2022-10-16T00:31:46;33.22;;;17.48;;
44842;SDS011;31884;52.538;13.820;2022-10-16T00:34:12;25.48;;;13.80;;
44842;SDS011;31884;52.538;13.820;2022-10-16T00:36:37;19.08;;;11.05;;
44842;SDS011;31884;52.538;13.820;2022-10-16T00:39:03;27.42;;;13.23;;
44842;SDS011;31884;52.538;13.820;2022-10-16T00:41:28;25.60;;;13.80;;
44842;SDS011;31884;52.538;13.820;2022-10-16T00:43:56;29.10;;;15.25;;
44842;SDS011;31884;52.538;13.820;2022-10-16T00:46:24;27.58;;;13.32;;
44842;SDS011;31884;52.538;13.820;2022-10-16T00:49:02;25.75;;;13.70;;
44842;SDS011;31884;52.538;13.820;2022-10-16T00:51:32;22.23;;;12.63;;
44842;SDS011;31884;52.538;13.820;2022-10-16T00:54:00;13.02;;;8.50;;
44842;SDS011;31884;52.538;13.820;2022-10-16T00:56:28;22.90;;;11.88;;
44842;SDS011;31884;52.538;13.820;2022-10-16T00:58:54;20.58;;;11.45;;
44842;SDS011;31884;52.538;13.820;2022-10-16T01:01:20;19.23;;;10.32;;
44842;SDS011;31884;52.538;13.820;2022-10-16T01:03:45;15.95;;;9.27;;
44842;SDS011;31884;52.538;13.820;2022-10-16T01:06:15;20.20;;;10.95;;
44842;SDS011;31884;52.538;13.820;2022-10-16T01:09:03;14.52;;;9.00;;
44842;SDS011;31884;52.538;13.820;2022-10-16T01:17:06;17.33;;;10.15;;
44842;SDS011;31884;52.538;13.820;2022-10-16T01:22:31;9.68;;;6.07;;
44842;SDS011;31884;52.538;13.820;2022-10-16T01:25:04;6.65;;;4.22;;
44842;SDS011;31884;52.538;13.820;2022-10-16T01:27:34;8.20;;;4.55;;
44842;SDS011;31884;52.538;13.820;2022-10-16T01:30:07;7.55;;;4.25;;
44842;SDS011;31884;52.538;13.820;2022-10-16T01:32:42;8.15;;;4.80;;
44842;SDS011;31884;52.538;13.820;2022-10-16T01:35:24;5.53;;;3.72;;
44842;SDS011;31884;52.538;13.820;2022-10-16T01:37:52;5.80;;;3.50;;
44842;SDS011;31884;52.538;13.820;2022-10-16T01:40:26;11.23;;;6.88;;
44842;SDS011;31884;52.538;13.820;2022-10-16T01:42:58;7.68;;;4.47;;
44842;SDS011;31884;52.538;13.820;2022-10-16T01:45:30;8.23;;;5.18;;
44842;SDS011;31884;52.538;13.820;2022-10-16T01:47:57;6.53;;;4.70;;
44842;SDS011;31884;52.538;13.820;2022-10-16T01:50:25;6.60;;;4.57;;
44842;SDS011;31884;52.538;13.820;2022-10-16T01:52:52;4.35;;;3.72;;
44842;SDS011;31884;52.538;13.820;2022-10-16T01:55:26;4.82;;;3.03;;
44842;SDS011;31884;52.538;13.820;2022-10-16T01:57:56;4.25;;;3.03;;
44842;SDS011;31884;52.538;13.820;2022-10-16T02:00:25;4.40;;;2.38;;
44842;SDS011;31884;52.538;13.820;2022-10-16T02:02:52;4.57;;;2.50;;
44842;SDS011;31884;52.538;13.820;2022-10-16T02:05:24;3.92;;;2.13;;
44842;SDS011;31884;52.538;13.820;2022-10-16T02:08:12;4.72;;;1.85;;
44842;SDS011;31884;52.538;13.820;2022-10-16T02:10:38;2.38;;;1.80;;
44842;SDS011;31884;52.538;13.820;2022-10-16T02:13:11;2.17;;;1.60;;
44842;SDS011;31884;52.538;13.820;2022-10-16T02:15:42;2.25;;;1.75;;
44842;SDS011;31884;52.538;13.820;2022-10-16T02:18:08;1.90;;;1.70;;
44842;SDS011;31884;52.538;13.820;2022-10-16T02:20:55;2.30;;;1.50;;
44842;SDS011;31884;52.538;13.820;2022-10-16T02:23:45;1.80;;;1.43;;
44842;SDS011;31884;52.538;13.820;2022-10-16T02:26:38;1.58;;;1.40;;
44842;SDS011;31884;52.538;13.820;2022-10-16T02:29:25;2.22;;;1.80;;
44842;SDS011;31884;52.538;13.820;2022-10-16T02:31:59;1.92;;;1.35;;
44842;SDS011;31884;52.538;13.820;2022-10-16T02:34:28;2.03;;;1.48;;
44842;SDS011;31884;52.538;13.820;2022-10-16T02:36:56;1.63;;;1.48;;
44842;SDS011;31884;52.538;13.820;2022-10-16T02:39:24;1.50;;;1.40;;
44842;SDS011;31884;52.538;13.820;2022-10-16T02:41:51;2.47;;;1.45;;
44842;SDS011;31884;52.538;13.820;2022-10-16T02:44:16;1.83;;;1.50;;
44842;SDS011;31884;52.538;13.820;2022-10-16T02:46:42;2.40;;;1.25;;
44842;SDS011;31884;52.538;13.820;2022-10-16T02:49:07;1.60;;;1.45;;
44842;SDS011;31884;52.538;13.820;2022-10-16T02:51:33;1.60;;;1.50;;
44842;SDS011;31884;52.538;13.820;2022-10-16T02:53:58;2.45;;;1.10;;
44842;SDS011;31884;52.538;13.820;2022-10-16T02:56:24;1.35;;;1.10;;
44842;SDS011;31884;52.538;13.820;2022-10-16T02:58:49;2.72;;;1.88;;
44842;SDS011;31884;52.538;13.820;2022-10-16T03:01:14;1.45;;;1.33;;
44842;SDS011;31884;52.538;13.820;2022-10-16T03:03:41;1.38;;;1.25;;
44842;SDS011;31884;52.538;13.820;2022-10-16T03:06:07;6.70;;;3.40;;
44842;SDS011;31884;52.538;13.820;2022-10-16T03:08:33;4.32;;;2.78;;
44842;SDS011;31884;52.538;13.820;2022-10-16T03:10:58;4.72;;;2.35;;
44842;SDS011;31884;52.538;13.820;2022-10-16T03:13:24;2.75;;;2.20;;
44842;SDS011;31884;52.538;13.820;2022-10-16T03:15:49;3.72;;;2.78;;
44842;SDS011;31884;52.538;13.820;2022-10-16T03:18:15;6.50;;;3.65;;
44842;SDS011;31884;52.538;13.820;2022-10-16T03:20:42;7.30;;;3.20;;
44842;SDS011;31884;52.538;13.820;2022-10-16T03:23:08;4.28;;;2.70;;
44842;SDS011;31884;52.538;13.820;2022-10-16T03:25:33;2.92;;;2.50;;
44842;SDS011;31884;52.538;13.820;2022-10-16T03:27:59;2.38;;;1.90;;
44842;SDS011;31884;52.538;13.820;2022-10-16T03:30:24;2.88;;;2.00;;
44842;SDS011;31884;52.538;13.820;2022-10-16T03:32:50;2.63;;;1.95;;
44842;SDS011;31884;52.538;13.820;2022-10-16T03:35:18;3.17;;;1.77;;
44842;SDS011;31884;52.538;13.820;2022-10-16T03:37:45;2.00;;;1.77;;
44842;SDS011;31884;52.538;13.820;2022-10-16T03:40:10;1.63;;;1.30;;
44842;SDS011;31884;52.538;13.820;2022-10-16T03:42:36;1.33;;;1.23;;
44842;SDS011;31884;52.538;13.820;2022-10-16T03:45:01;1.40;;;1.17;;
44842;SDS011;31884;52.538;13.820;2022-10-16T03:47:27;1.65;;;1.48;;
44842;SDS011;31884;52.538;13.820;2022-10-16T03:49:53;3.00;;;1.30;;
44842;SDS011;31884;52.538;13.820;2022-10-16T03:52:18;2.13;;;1.48;;
44842;SDS011;31884;52.538;13.820;2022-10-16T03:54:43;1.45;;;1.10;;
44842;SDS011;31884;52.538;13.820;2022-10-16T03:57:09;4.30;;;1.40;;
44842;SDS011;31884;52.538;13.820;2022-10-16T03:59:34;1.27;;;1.17;;
44842;SDS011;31884;52.538;13.820;2022-10-16T04:02:00;2.47;;;1.30;;
44842;SDS011;31884;52.538;13.820;2022-10-16T04:04:25;2.78;;;1.15;;
44842;SDS011;31884;52.538;13.820;2022-10-16T04:06:51;3.28;;;1.60;;
44842;SDS011;31884;52.538;13.820;2022-10-16T04:09:16;1.38;;;1.20;;
44842;SDS011;31884;52.538;13.820;2022-10-16T04:11:42;1.38;;;1.05;;
44842;SDS011;31884;52.538;13.820;2022-10-16T04:14:07;1.70;;;1.13;;
44842;SDS011;31884;52.538;13.820;2022-10-16T04:16:33;1.30;;;1.20;;
44842;SDS011;31884;52.538;13.820;2022-10-16T04:18:59;1.23;;;1.10;;
44842;SDS011;31884;52.538;13.820;2022-10-16T04:21:24;1.40;;;1.10;;
44842;SDS011;31884;52.538;13.820;2022-10-16T04:23:49;1.55;;;1.10;;
44842;SDS011;31884;52.538;13.820;2022-10-16T04:26:15;2.17;;;1.40;;
44842;SDS011;31884;52.538;13.820;2022-10-16T04:28:40;1.30;;;1.20;;
44842;SDS011;31884;52.538;13.820;2022-10-16T04:31:06;1.67;;;1.17;;
44842;SDS011;31884;52.538;13.820;2022-10-16T04:33:32;2.85;;;1.30;;
44842;SDS011;31884;52.538;13.820;2022-10-16T04:35:58;1.38;;;1.27;;
44842;SDS011;31884;52.538;13.820;2022-10-16T04:38:25;4.15;;;1.48;;
44842;SDS011;31884;52.538;13.820;2022-10-16T04:40:51;4.68;;;1.55;;
44842;SDS011;31884;52.538;13.820;2022-10-16T04:43:17;1.48;;;1.30;;
44842;SDS011;31884;52.538;13.820;2022-10-16T04:45:43;1.17;;;1.08;;
44842;SDS011;31884;52.538;13.820;2022-10-16T04:48:08;1.67;;;1.42;;
44842;SDS011;31884;52.538;13.820;2022-10-16T04:50:34;1.42;;;1.30;;
44842;SDS011;31884;52.538;13.820;2022-10-16T04:52:59;2.25;;;1.50;;
44842;SDS011;31884;52.538;13.820;2022-10-16T04:55:25;1.30;;;1.20;;
44842;SDS011;31884;52.538;13.820;2022-10-16T04:57:50;1.88;;;1.45;;
44842;SDS011;31884;52.538;13.820;2022-10-16T05:00:16;3.60;;;1.30;;
44842;SDS011;31884;52.538;13.820;2022-10-16T05:02:41;2.17;;;1.30;;
44842;SDS011;31884;52.538;13.820;2022-10-16T05:05:07;2.15;;;1.33;;
44842;SDS011;31884;52.538;13.820;2022-10-16T05:07:32;1.05;;;1.00;;
44842;SDS011;31884;52.538;13.820;2022-10-16T05:09:58;1.52;;;1.40;;
44842;SDS011;31884;52.538;13.820;2022-10-16T05:12:23;1.67;;;1.10;;
44842;SDS011;31884;52.538;13.820;2022-10-16T05:14:49;1.10;;;1.00;;
44842;SDS011;31884;52.538;13.820;2022-10-16T05:17:14;1.42;;;1.23;;
44842;SDS011;31884;52.538;13.820;2022-10-16T05:19:40;3.33;;;1.23;;
44842;SDS011;31884;52.538;13.820;2022-10-16T05:22:05;4.65;;;1.27;;
44842;SDS011;31884;52.538;13.820;2022-10-16T05:24:31;1.30;;;1.20;;
44842;SDS011;31884;52.538;13.820;2022-10-16T05:26:56;2.75;;;1.10;;
44842;SDS011;31884;52.538;13.820;2022-10-16T05:29:22;1.98;;;1.10;;
44842;SDS011;31884;52.538;13.820;2022-10-16T05:31:49;1.20;;;1.10;;
44842;SDS011;31884;52.538;13.820;2022-10-16T05:34:16;2.05;;;1.40;;
44842;SDS011;31884;52.538;13.820;2022-10-16T05:36:42;1.83;;;1.60;;
44842;SDS011;31884;52.538;13.820;2022-10-16T05:39:10;1.20;;;1.10;;
44842;SDS011;31884;52.538;13.820;2022-10-16T05:41:35;1.40;;;1.30;;
44842;SDS011;31884;52.538;13.820;2022-10-16T05:44:03;1.98;;;1.52;;
44842;SDS011;31884;52.538;13.820;2022-10-16T05:46:30;3.88;;;1.50;;
44842;SDS011;31884;52.538;13.820;2022-10-16T05:48:55;3.78;;;1.90;;
44842;SDS011;31884;52.538;13.820;2022-10-16T05:51:21;2.17;;;1.52;;
44842;SDS011;31884;52.538;13.820;2022-10-16T05:53:46;0.93;;;0.82;;
44842;SDS011;31884;52.538;13.820;2022-10-16T05:56:12;1.98;;;1.20;;
44842;SDS011;31884;52.538;13.820;2022-10-16T05:58:38;1.60;;;1.30;;
44842;SDS011;31884;52.538;13.820;2022-10-16T06:01:26;1.65;;;1.25;;
44842;SDS011;31884;52.538;13.820;2022-10-16T06:03:51;1.50;;;1.35;;
44842;SDS011;31884;52.538;13.820;2022-10-16T06:06:18;2.63;;;1.63;;
44842;SDS011;31884;52.538;13.820;2022-10-16T06:08:46;3.10;;;1.45;;
44842;SDS011;31884;52.538;13.820;2022-10-16T06:11:14;1.30;;;1.20;;
44842;SDS011;31884;52.538;13.820;2022-10-16T06:13:41;1.55;;;1.42;;
44842;SDS011;31884;52.538;13.820;2022-10-16T06:16:08;1.30;;;1.20;;
44842;SDS011;31884;52.538;13.820;2022-10-16T06:18:35;4.30;;;1.60;;
44842;SDS011;31884;52.538;13.820;2022-10-16T06:21:06;3.95;;;1.10;;
44842;SDS011;31884;52.538;13.820;2022-10-16T06:23:37;2.05;;;1.38;;
44842;SDS011;31884;52.538;13.820;2022-10-16T06:26:06;2.03;;;1.23;;
44842;SDS011;31884;52.538;13.820;2022-10-16T06:28:36;2.40;;;1.10;;
44842;SDS011;31884;52.538;13.820;2022-10-16T06:31:02;3.53;;;1.38;;
44842;SDS011;31884;52.538;13.820;2022-10-16T06:33:28;1.75;;;1.38;;
44842;SDS011;31884;52.538;13.820;2022-10-16T06:35:59;1.45;;;1.23;;
44842;SDS011;31884;52.538;13.820;2022-10-16T06:38:33;2.38;;;1.60;;
44842;SDS011;31884;52.538;13.820;2022-10-16T06:40:59;1.85;;;1.23;;
44842;SDS011;31884;52.538;13.820;2022-10-16T06:43:24;1.48;;;1.10;;
44842;SDS011;31884;52.538;13.820;2022-10-16T06:45:51;1.30;;;1.20;;
44842;SDS011;31884;52.538;13.820;2022-10-16T06:48:18;1.67;;;1.17;;
44842;SDS011;31884;52.538;13.820;2022-10-16T06:50:44;1.98;;;1.35;;
44842;SDS011;31884;52.538;13.820;2022-10-16T06:53:09;2.15;;;1.10;;
44842;SDS011;31884;52.538;13.820;2022-10-16T06:55:35;4.00;;;1.35;;
44842;SDS011;31884;52.538;13.820;2022-10-16T06:58:00;1.40;;;1.30;;
44842;SDS011;31884;52.538;13.820;2022-10-16T07:00:25;7.47;;;1.45;;
44842;SDS011;31884;52.538;13.820;2022-10-16T07:02:51;3.25;;;2.00;;
44842;SDS011;31884;52.538;13.820;2022-10-16T07:05:16;3.45;;;2.00;;
44842;SDS011;31884;52.538;13.820;2022-10-16T07:07:42;2.60;;;1.98;;
44842;SDS011;31884;52.538;13.820;2022-10-16T07:10:07;2.13;;;1.55;;
44842;SDS011;31884;52.538;13.820;2022-10-16T07:12:33;1.75;;;1.60;;
44842;SDS011;31884;52.538;13.820;2022-10-16T07:14:59;1.98;;;1.30;;
44842;SDS011;31884;52.538;13.820;2022-10-16T07:17:24;1.90;;;1.45;;
44842;SDS011;31884;52.538;13.820;2022-10-16T07:19:49;2.72;;;1.48;;
44842;SDS011;31884;52.538;13.820;2022-10-16T07:22:17;3.20;;;1.20;;
44842;SDS011;31884;52.538;13.820;2022-10-16T07:24:43;1.75;;;1.58;;
44842;SDS011;31884;52.538;13.820;2022-10-16T07:27:09;1.95;;;1.20;;
44842;SDS011;31884;52.538;13.820;2022-10-16T07:29:35;1.40;;;1.30;;
44842;SDS011;31884;52.538;13.820;2022-10-16T07:32:01;1.40;;;1.15;;
44842;SDS011;31884;52.538;13.820;2022-10-16T07:34:26;1.42;;;0.82;;
44842;SDS011;31884;52.538;13.820;2022-10-16T07:36:52;1.65;;;1.10;;
44842;SDS011;31884;52.538;13.820;2022-10-16T07:39:18;1.25;;;0.93;;
44842;SDS011;31884;52.538;13.820;2022-10-16T07:41:43;1.27;;;0.70;;
44842;SDS011;31884;52.538;13.820;2022-10-16T07:44:09;3.10;;;1.20;;
44842;SDS011;31884;52.538;13.820;2022-10-16T07:46:34;1.13;;;0.90;;
44842;SDS011;31884;52.538;13.820;2022-10-16T07:49:01;1.42;;;1.02;;
44842;SDS011;31884;52.538;13.820;2022-10-16T07:51:27;1.20;;;1.00;;
44842;SDS011;31884;52.538;13.820;2022-10-16T07:53:52;1.15;;;0.73;;
44842;SDS011;31884;52.538;13.820;2022-10-16T07:56:19;0.80;;;0.80;;
44842;SDS011;31884;52.538;13.820;2022-10-16T07:58:45;1.50;;;0.95;;
44842;SDS011;31884;52.538;13.820;2022-10-16T08:01:12;0.98;;;0.80;;
44842;SDS011;31884;52.538;13.820;2022-10-16T08:03:46;0.90;;;0.75;;
44842;SDS011;31884;52.538;13.820;2022-10-16T08:06:13;2.75;;;0.85;;
44842;SDS011;31884;52.538;13.820;2022-10-16T08:08:39;0.95;;;0.90;;
44842;SDS011;31884;52.538;13.820;2022-10-16T08:11:04;0.50;;;0.50;;
44842;SDS011;31884;52.538;13.820;2022-10-16T08:13:30;1.63;;;0.80;;
44842;SDS011;31884;52.538;13.820;2022-10-16T08:15:56;2.30;;;0.80;;
44842;SDS011;31884;52.538;13.820;2022-10-16T08:18:22;0.98;;;0.80;;
44842;SDS011;31884;52.538;13.820;2022-10-16T08:20:48;1.23;;;0.90;;
44842;SDS011;31884;52.538;13.820;2022-10-16T08:23:19;3.45;;;1.00;;
44842;SDS011;31884;52.538;13.820;2022-10-16T08:25:45;1.00;;;0.77;;
44842;SDS011;31884;52.538;13.820;2022-10-16T08:28:10;1.15;;;0.80;;
44842;SDS011;31884;52.538;13.820;2022-10-16T08:30:36;1.38;;;1.02;;
44842;SDS011;31884;52.538;13.820;2022-10-16T08:33:02;1.30;;;0.82;;
44842;SDS011;31884;52.538;13.820;2022-10-16T08:35:28;1.42;;;1.00;;
44842;SDS011;31884;52.538;13.820;2022-10-16T08:37:54;2.25;;;1.80;;
44842;SDS011;31884;52.538;13.820;2022-10-16T08:40:21;2.78;;;1.58;;
44842;SDS011;31884;52.538;13.820;2022-10-16T08:45:51;5.07;;;2.97;;
44842;SDS011;31884;52.538;13.820;2022-10-16T08:48:35;4.13;;;2.10;;
44842;SDS011;31884;52.538;13.820;2022-10-16T08:51:10;2.88;;;2.20;;
44842;SDS011;31884;52.538;13.820;2022-10-16T08:53:48;7.10;;;2.85;;
44842;SDS011;31884;52.538;13.820;2022-10-16T08:56:17;5.50;;;2.03;;
44842;SDS011;31884;52.538;13.820;2022-10-16T08:58:43;3.08;;;1.92;;
44842;SDS011;31884;52.538;13.820;2022-10-16T09:01:13;5.38;;;2.40;;
44842;SDS011;31884;52.538;13.820;2022-10-16T09:03:47;3.30;;;2.20;;
44842;SDS011;31884;52.538;13.820;2022-10-16T09:06:21;5.60;;;2.70;;
44842;SDS011;31884;52.538;13.820;2022-10-16T09:09:01;3.65;;;2.63;;
44842;SDS011;31884;52.538;13.820;2022-10-16T09:11:51;7.80;;;4.80;;
44842;SDS011;31884;52.538;13.820;2022-10-16T09:20:13;2.65;;;1.80;;
44842;SDS011;31884;52.538;13.820;2022-10-16T09:23:00;3.05;;;2.33;;
44842;SDS011;31884;52.538;13.820;2022-10-16T09:25:37;3.35;;;1.83;;
44842;SDS011;31884;52.538;13.820;2022-10-16T09:28:07;4.95;;;3.20;;
44842;SDS011;31884;52.538;13.820;2022-10-16T09:30:33;3.17;;;1.88;;
44842;SDS011;31884;52.538;13.820;2022-10-16T09:32:58;3.40;;;2.00;;
44842;SDS011;31884;52.538;13.820;2022-10-16T09:35:27;4.25;;;2.72;;
44842;SDS011;31884;52.538;13.820;2022-10-16T09:38:00;3.40;;;2.00;;
44842;SDS011;31884;52.538;13.820;2022-10-16T09:40:30;12.02;;;5.75;;
44842;SDS011;31884;52.538;13.820;2022-10-16T09:45:40;8.82;;;4.60;;
44842;SDS011;31884;52.538;13.820;2022-10-16T09:48:12;5.90;;;3.58;;
44842;SDS011;31884;52.538;13.820;2022-10-16T09:50:38;5.00;;;2.15;;
44842;SDS011;31884;52.538;13.820;2022-10-16T09:53:04;3.80;;;2.20;;
44842;SDS011;31884;52.538;13.820;2022-10-16T09:55:33;1.73;;;1.40;;
44842;SDS011;31884;52.538;13.820;2022-10-16T09:57:59;2.67;;;1.40;;
44842;SDS011;31884;52.538;13.820;2022-10-16T10:00:24;17.65;;;7.60;;
44842;SDS011;31884;52.538;13.820;2022-10-16T10:02:50;11.60;;;4.95;;
44842;SDS011;31884;52.538;13.820;2022-10-16T10:05:18;6.45;;;2.88;;
44842;SDS011;31884;52.538;13.820;2022-10-16T10:07:44;5.78;;;2.80;;
44842;SDS011;31884;52.538;13.820;2022-10-16T10:10:20;14.70;;;6.15;;
44842;SDS011;31884;52.538;13.820;2022-10-16T10:12:53;17.90;;;8.27;;
44842;SDS011;31884;52.538;13.820;2022-10-16T10:15:20;41.83;;;20.52;;
44842;SDS011;31884;52.538;13.820;2022-10-16T10:17:51;20.05;;;10.40;;
44842;SDS011;31884;52.538;13.820;2022-10-16T10:20:22;13.02;;;8.85;;
44842;SDS011;31884;52.538;13.820;2022-10-16T10:22:50;7.47;;;4.80;;
44842;SDS011;31884;52.538;13.820;2022-10-16T10:27:57;2.78;;;2.30;;
44842;SDS011;31884;52.538;13.820;2022-10-16T10:30:45;3.38;;;2.70;;
44842;SDS011;31884;52.538;13.820;2022-10-16T10:33:44;2.92;;;2.50;;
44842;SDS011;31884;52.538;13.820;2022-10-16T10:36:25;2.20;;;1.63;;
44842;SDS011;31884;52.538;13.820;2022-10-16T10:44:34;3.60;;;1.10;;
44842;SDS011;31884;52.538;13.820;2022-10-16T10:47:15;1.52;;;0.95;;
44842;SDS011;31884;52.538;13.820;2022-10-16T10:49:57;0.88;;;0.47;;
44842;SDS011;31884;52.538;13.820;2022-10-16T10:58:02;1.50;;;0.60;;
44842;SDS011;31884;52.538;13.820;2022-10-16T11:06:24;1.13;;;0.60;;
44842;SDS011;31884;52.538;13.820;2022-10-16T11:11:36;0.60;;;0.60;;
44842;SDS011;31884;52.538;13.820;2022-10-16T11:14:11;2.05;;;0.77;;
44842;SDS011;31884;52.538;13.820;2022-10-16T11:16:40;1.13;;;0.63;;
44842;SDS011;31884;52.538;13.820;2022-10-16T11:19:27;1.85;;;0.60;;
44842;SDS011;31884;52.538;13.820;2022-10-16T11:21:55;0.95;;;0.60;;
44842;SDS011;31884;52.538;13.820;2022-10-16T11:24:42;1.42;;;0.80;;
44842;SDS011;31884;52.538;13.820;2022-10-16T11:27:35;2.28;;;0.90;;
44842;SDS011;31884;52.538;13.820;2022-10-16T11:30:08;1.15;;;0.60;;
44842;SDS011;31884;52.538;13.820;2022-10-16T11:38:30;0.82;;;0.60;;
44842;SDS011;31884;52.538;13.820;2022-10-16T11:41:19;1.17;;;0.43;;
44842;SDS011;31884;52.538;13.820;2022-10-16T11:43:56;0.90;;;0.57;;
44842;SDS011;31884;52.538;13.820;2022-10-16T11:46:35;1.95;;;0.60;;
44842;SDS011;31884;52.538;13.820;2022-10-16T11:49:06;5.13;;;2.83;;
44842;SDS011;31884;52.538;13.820;2022-10-16T11:51:38;3.03;;;1.65;;
44842;SDS011;31884;52.538;13.820;2022-10-16T11:57:11;5.70;;;3.00;;
44842;SDS011;31884;52.538;13.820;2022-10-16T11:59:56;3.38;;;2.00;;
44842;SDS011;31884;52.538;13.820;2022-10-16T12:04:58;1.85;;;1.10;;
44842;SDS011;31884;52.538;13.820;2022-10-16T12:07:36;2.42;;;0.95;;
44842;SDS011;31884;52.538;13.820;2022-10-16T12:10:22;0.68;;;0.68;;
44842;SDS011;31884;52.538;13.820;2022-10-16T12:12:50;0.63;;;0.60;;
44842;SDS011;31884;52.538;13.820;2022-10-16T12:15:27;0.77;;;0.57;;
44842;SDS011;31884;52.538;13.820;2022-10-16T12:17:54;0.73;;;0.50;;
44842;SDS011;31884;52.538;13.820;2022-10-16T12:20:22;0.40;;;0.40;;
44842;SDS011;31884;52.538;13.820;2022-10-16T12:22:50;0.73;;;0.50;;
44842;SDS011;31884;52.538;13.820;2022-10-16T12:25:22;1.08;;;0.70;;
44842;SDS011;31884;52.538;13.820;2022-10-16T12:27:57;1.95;;;0.50;;
44842;SDS011;31884;52.538;13.820;2022-10-16T12:30:26;0.57;;;0.50;;
44842;SDS011;31884;52.538;13.820;2022-10-16T12:32:55;2.28;;;0.60;;
44842;SDS011;31884;52.538;13.820;2022-10-16T12:35:23;0.50;;;0.50;;
44842;SDS011;31884;52.538;13.820;2022-10-16T12:37:52;0.70;;;0.65;;
44842;SDS011;31884;52.538;13.820;2022-10-16T12:40:29;1.80;;;0.50;;
44842;SDS011;31884;52.538;13.820;2022-10-16T12:42:57;1.45;;;0.60;;
44842;SDS011;31884;52.538;13.820;2022-10-16T12:45:25;0.50;;;0.50;;
44842;SDS011;31884;52.538;13.820;2022-10-16T12:47:56;1.23;;;0.75;;
44842;SDS011;31884;52.538;13.820;2022-10-16T12:50:40;1.30;;;0.60;;
44842;SDS011;31884;52.538;13.820;2022-10-16T12:53:19;1.27;;;0.60;;
44842;SDS011;31884;52.538;13.820;2022-10-16T13:01:27;0.80;;;0.70;;
44842;SDS011;31884;52.538;13.820;2022-10-16T13:07:03;0.47;;;0.47;;
44842;SDS011;31884;52.538;13.820;2022-10-16T13:15:24;1.15;;;0.50;;
44842;SDS011;31884;52.538;13.820;2022-10-16T13:18:19;0.77;;;0.40;;
44842;SDS011;31884;52.538;13.820;2022-10-16T13:20:59;0.35;;;0.35;;
44842;SDS011;31884;52.538;13.820;2022-10-16T13:23:35;0.47;;;0.47;;
44842;SDS011;31884;52.538;13.820;2022-10-16T13:26:18;0.40;;;0.40;;
44842;SDS011;31884;52.538;13.820;2022-10-16T13:28:59;2.22;;;0.40;;
44842;SDS011;31884;52.538;13.820;2022-10-16T13:31:26;0.40;;;0.35;;
44842;SDS011;31884;52.538;13.820;2022-10-16T13:33:54;0.68;;;0.43;;
44842;SDS011;31884;52.538;13.820;2022-10-16T13:36:25;0.85;;;0.40;;
44842;SDS011;31884;52.538;13.820;2022-10-16T13:38:59;0.43;;;0.40;;
44842;SDS011;31884;52.538;13.820;2022-10-16T13:41:31;0.60;;;0.35;;
44842;SDS011;31884;52.538;13.820;2022-10-16T13:43:56;0.93;;;0.52;;
44842;SDS011;31884;52.538;13.820;2022-10-16T13:46:23;0.85;;;0.60;;
44842;SDS011;31884;52.538;13.820;2022-10-16T13:49:22;2.22;;;0.60;;
44842;SDS011;31884;52.538;13.820;2022-10-16T13:51:53;2.63;;;0.70;;
44842;SDS011;31884;52.538;13.820;2022-10-16T13:54:20;0.77;;;0.50;;
44842;SDS011;31884;52.538;13.820;2022-10-16T13:56:45;0.50;;;0.50;;
44842;SDS011;31884;52.538;13.820;2022-10-16T13:59:27;0.60;;;0.60;;
44842;SDS011;31884;52.538;13.820;2022-10-16T14:01:58;0.93;;;0.65;;
44842;SDS011;31884;52.538;13.820;2022-10-16T14:04:31;0.50;;;0.50;;
44842;SDS011;31884;52.538;13.820;2022-10-16T14:06:58;0.52;;;0.45;;
44842;SDS011;31884;52.538;13.820;2022-10-16T14:09:27;0.57;;;0.50;;
44842;SDS011;31884;52.538;13.820;2022-10-16T14:14:25;0.93;;;0.50;;
44842;SDS011;31884;52.538;13.820;2022-10-16T14:16:58;0.50;;;0.40;;
44842;SDS011;31884;52.538;13.820;2022-10-16T14:19:25;0.50;;;0.40;;
44842;SDS011;31884;52.538;13.820;2022-10-16T14:21:53;0.68;;;0.40;;
44842;SDS011;31884;52.538;13.820;2022-10-16T14:24:34;0.73;;;0.40;;
44842;SDS011;31884;52.538;13.820;2022-10-16T14:27:00;1.98;;;0.60;;
44842;SDS011;31884;52.538;13.820;2022-10-16T14:29:27;1.60;;;0.40;;
44842;SDS011;31884;52.538;13.820;2022-10-16T14:32:03;0.30;;;0.30;;
44842;SDS011;31884;52.538;13.820;2022-10-16T14:34:53;0.88;;;0.32;;
44842;SDS011;31884;52.538;13.820;2022-10-16T14:37:22;0.40;;;0.40;;
44842;SDS011;31884;52.538;13.820;2022-10-16T14:39:53;0.35;;;0.35;;
44842;SDS011;31884;52.538;13.820;2022-10-16T14:42:20;1.45;;;0.45;;
44842;SDS011;31884;52.538;13.820;2022-10-16T14:44:49;0.50;;;0.50;;
44842;SDS011;31884;52.538;13.820;2022-10-16T14:47:18;0.52;;;0.40;;
44842;SDS011;31884;52.538;13.820;2022-10-16T14:49:47;0.60;;;0.40;;
44842;SDS011;31884;52.538;13.820;2022-10-16T14:52:13;0.40;;;0.40;;
44842;SDS011;31884;52.538;13.820;2022-10-16T14:54:39;1.80;;;0.40;;
44842;SDS011;31884;52.538;13.820;2022-10-16T14:57:05;0.90;;;0.70;;
44842;SDS011;31884;52.538;13.820;2022-10-16T14:59:39;1.33;;;0.40;;
44842;SDS011;31884;52.538;13.820;2022-10-16T15:02:28;0.30;;;0.30;;
44842;SDS011;31884;52.538;13.820;2022-10-16T15:04:53;0.50;;;0.40;;
44842;SDS011;31884;52.538;13.820;2022-10-16T15:07:20;1.30;;;0.50;;
44842;SDS011;31884;52.538;13.820;2022-10-16T15:09:45;0.68;;;0.60;;
44842;SDS011;31884;52.538;13.820;2022-10-16T15:12:11;0.65;;;0.30;;
44842;SDS011;31884;52.538;13.820;2022-10-16T15:14:37;2.15;;;0.50;;
44842;SDS011;31884;52.538;13.820;2022-10-16T15:17:02;0.40;;;0.38;;
44842;SDS011;31884;52.538;13.820;2022-10-16T15:19:28;0.95;;;0.60;;
44842;SDS011;31884;52.538;13.820;2022-10-16T15:21:54;0.93;;;0.70;;
44842;SDS011;31884;52.538;13.820;2022-10-16T15:24:19;0.38;;;0.32;;
44842;SDS011;31884;52.538;13.820;2022-10-16T15:26:45;0.40;;;0.40;;
44842;SDS011;31884;52.538;13.820;2022-10-16T15:29:14;0.77;;;0.45;;
44842;SDS011;31884;52.538;13.820;2022-10-16T15:31:40;1.27;;;0.52;;
44842;SDS011;31884;52.538;13.820;2022-10-16T15:34:08;0.85;;;0.60;;
44842;SDS011;31884;52.538;13.820;2022-10-16T15:36:35;1.15;;;0.40;;
44842;SDS011;31884;52.538;13.820;2022-10-16T15:39:06;1.17;;;0.55;;
44842;SDS011;31884;52.538;13.820;2022-10-16T15:41:38;2.25;;;1.00;;
44842;SDS011;31884;52.538;13.820;2022-10-16T15:44:04;1.05;;;0.68;;
44842;SDS011;31884;52.538;13.820;2022-10-16T15:46:29;0.95;;;0.85;;
44842;SDS011;31884;52.538;13.820;2022-10-16T15:48:56;1.17;;;0.85;;
44842;SDS011;31884;52.538;13.820;2022-10-16T15:51:22;1.13;;;0.88;;
44842;SDS011;31884;52.538;13.820;2022-10-16T15:53:48;1.45;;;0.73;;